N775BN EDHL-LEPA
Flight info
| Callsign | N775BN |
|---|---|
| Flight time | N/A |
| Altitude | 43000 |
| Route | HAM2A HAM L23 ESTAD N850 NIE DCT BOMBI DCT GIGET DCT ABUKA/N0497F450 DCT BANUX/N0497F430 DCT KRH DCT NATOR/N0496F450 DCT LUTIX DCT BENOT DCT NEMOS DCT GEVEA DCT INCUS DCT BALSI DCT RETNO DCT TUPOX DCT MTG DCT DIVKO DCT VATIR DCT PIVUS DCT BODEQ DCT VERSO L129 LUNIK |
| Aircraft | C750/M-SBDE3FGHRWXY/S |
Departure
| Time | 2026-05-06 09:10 |
|---|---|
| Airport | Lübeck Blankensee Airport (EDHL) |
Arrival
| Time | N/A |
|---|---|
| Airport | Palma de Mallorca Airport (LEPA) |
| Time | Latitude | Longitude | Altitude | Speed | Heading |
|---|---|---|---|---|---|
| 2026-05-06 08:55 | 53.80711 | 10.70594 | 54 ft | 0 kts | 187° |
| 2026-05-06 09:05 | 53.80710 | 10.70594 | 54 ft | 0 kts | 189° |
| 2026-05-06 09:05 | 53.80697 | 10.70577 | 53 ft | 3 kts | 224° |
| 2026-05-06 09:05 | 53.80694 | 10.70572 | 53 ft | 0 kts | 224° |
| 2026-05-06 09:05 | 53.80689 | 10.70562 | 54 ft | 4 kts | 227° |
| 2026-05-06 09:06 | 53.80664 | 10.70511 | 55 ft | 6 kts | 230° |
| 2026-05-06 09:06 | 53.80638 | 10.70463 | 55 ft | 5 kts | 226° |
| 2026-05-06 09:06 | 53.80617 | 10.70426 | 55 ft | 4 kts | 225° |
| 2026-05-06 09:06 | 53.80598 | 10.70393 | 55 ft | 3 kts | 225° |
| 2026-05-06 09:07 | 53.80583 | 10.70369 | 55 ft | 5 kts | 225° |
| 2026-05-06 09:07 | 53.80529 | 10.70348 | 55 ft | 9 kts | 145° |
| 2026-05-06 09:07 | 53.80477 | 10.70409 | 54 ft | 9 kts | 145° |
| 2026-05-06 09:07 | 53.80439 | 10.70396 | 55 ft | 5 kts | 239° |
| 2026-05-06 09:08 | 53.80430 | 10.70353 | 55 ft | 3 kts | 250° |
| 2026-05-06 09:08 | 53.80420 | 10.70306 | 55 ft | 10 kts | 251° |
| 2026-05-06 09:08 | 53.80397 | 10.70179 | 53 ft | 6 kts | 254° |
| 2026-05-06 09:08 | 53.80385 | 10.70133 | 53 ft | 2 kts | 229° |
| 2026-05-06 09:09 | 53.80349 | 10.70127 | 57 ft | 12 kts | 169° |
| 2026-05-06 09:09 | 53.80261 | 10.70151 | 58 ft | 12 kts | 170° |
| 2026-05-06 09:09 | 53.80207 | 10.70216 | 58 ft | 10 kts | 86° |
| 2026-05-06 09:09 | 53.80234 | 10.70348 | 54 ft | 46 kts | 71° |
| 2026-05-06 09:10 | 53.80451 | 10.71468 | 62 ft | 143 kts | 72° |
| 2026-05-06 09:10 | 53.80791 | 10.73190 | 498 ft | 139 kts | 71° |
| 2026-05-06 09:10 | 53.81053 | 10.74530 | 1538 ft | 111 kts | 72° |
| 2026-05-06 09:10 | 53.81299 | 10.75906 | 1973 ft | 136 kts | 72° |
| 2026-05-06 09:11 | 53.81615 | 10.77578 | 2321 ft | 165 kts | 72° |
| 2026-05-06 09:11 | 53.81999 | 10.79586 | 2660 ft | 194 kts | 72° |
| 2026-05-06 09:11 | 53.82444 | 10.81904 | 3188 ft | 220 kts | 72° |
| 2026-05-06 09:11 | 53.82945 | 10.84510 | 3767 ft | 242 kts | 72° |
| 2026-05-06 09:12 | 53.83270 | 10.87369 | 4386 ft | 259 kts | 85° |
| 2026-05-06 09:12 | 53.83960 | 10.90230 | 5132 ft | 266 kts | 47° |
| 2026-05-06 09:12 | 53.85477 | 10.91578 | 6542 ft | 247 kts | 9° |
| 2026-05-06 09:12 | 53.87165 | 10.91113 | 7450 ft | 253 kts | 331° |
| 2026-05-06 09:13 | 53.88317 | 10.88923 | 8428 ft | 255 kts | 292° |
| 2026-05-06 09:13 | 53.88420 | 10.85968 | 9413 ft | 258 kts | 255° |
| 2026-05-06 09:13 | 53.87543 | 10.83276 | 10092 ft | 270 kts | 237° |
| 2026-05-06 09:13 | 53.86652 | 10.80329 | 10461 ft | 292 kts | 246° |
| 2026-05-06 09:14 | 53.85815 | 10.77031 | 10737 ft | 316 kts | 246° |
| 2026-05-06 09:14 | 53.84814 | 10.73547 | 10883 ft | 342 kts | 242° |
| 2026-05-06 09:14 | 53.83658 | 10.69954 | 11452 ft | 349 kts | 242° |
| 2026-05-06 09:14 | 53.82525 | 10.66306 | 12207 ft | 352 kts | 243° |
| 2026-05-06 09:15 | 53.81429 | 10.62583 | 12875 ft | 356 kts | 244° |
| 2026-05-06 09:15 | 53.80293 | 10.58833 | 13524 ft | 359 kts | 241° |
| 2026-05-06 09:15 | 53.78587 | 10.55727 | 14052 ft | 366 kts | 214° |
| 2026-05-06 09:15 | 53.76258 | 10.54020 | 14751 ft | 367 kts | 197° |
| 2026-05-06 09:16 | 53.73780 | 10.52909 | 15373 ft | 370 kts | 194° |
| 2026-05-06 09:16 | 53.71275 | 10.51769 | 15988 ft | 374 kts | 197° |
| 2026-05-06 09:16 | 53.68810 | 10.50438 | 16603 ft | 378 kts | 198° |
| 2026-05-06 09:16 | 53.66286 | 10.49061 | 17589 ft | 379 kts | 197° |
| 2026-05-06 09:17 | 53.63789 | 10.47819 | 18562 ft | 375 kts | 196° |
| 2026-05-06 09:17 | 53.61254 | 10.46572 | 19072 ft | 382 kts | 197° |
| 2026-05-06 09:17 | 53.58711 | 10.45268 | 19669 ft | 384 kts | 197° |
| 2026-05-06 09:17 | 53.56145 | 10.43940 | 20136 ft | 387 kts | 197° |
| 2026-05-06 09:18 | 53.54435 | 10.43071 | 20474 ft | 388 kts | 197° |
| 2026-05-06 09:18 | 53.51836 | 10.41770 | 20910 ft | 391 kts | 197° |
| 2026-05-06 09:18 | 53.49223 | 10.40452 | 21373 ft | 394 kts | 197° |
| 2026-05-06 09:18 | 53.46627 | 10.39133 | 21826 ft | 382 kts | 197° |
| 2026-05-06 09:19 | 53.44033 | 10.37821 | 21849 ft | 396 kts | 197° |
| 2026-05-06 09:19 | 53.41377 | 10.36485 | 22265 ft | 399 kts | 197° |
| 2026-05-06 09:19 | 53.38713 | 10.35147 | 22742 ft | 401 kts | 197° |
| 2026-05-06 09:19 | 53.36029 | 10.33795 | 23191 ft | 404 kts | 197° |
| 2026-05-06 09:20 | 53.33333 | 10.32436 | 23602 ft | 406 kts | 197° |
| 2026-05-06 09:20 | 53.30615 | 10.31072 | 23974 ft | 408 kts | 197° |
| 2026-05-06 09:20 | 53.27888 | 10.29707 | 24354 ft | 411 kts | 197° |
| 2026-05-06 09:20 | 53.25140 | 10.28333 | 24707 ft | 414 kts | 197° |
| 2026-05-06 09:21 | 53.22372 | 10.26950 | 25042 ft | 417 kts | 196° |
| 2026-05-06 09:21 | 53.19595 | 10.25564 | 25460 ft | 417 kts | 196° |
| 2026-05-06 09:21 | 53.16811 | 10.24178 | 25855 ft | 418 kts | 196° |
| 2026-05-06 09:21 | 53.14008 | 10.22783 | 26183 ft | 421 kts | 196° |
| 2026-05-06 09:22 | 53.11190 | 10.21383 | 26549 ft | 423 kts | 196° |
| 2026-05-06 09:22 | 53.08364 | 10.19980 | 26925 ft | 425 kts | 195° |
| 2026-05-06 09:22 | 53.05517 | 10.18563 | 27400 ft | 428 kts | 195° |
| 2026-05-06 09:22 | 53.02656 | 10.17147 | 27953 ft | 431 kts | 195° |
| 2026-05-06 09:23 | 52.99770 | 10.15726 | 28470 ft | 434 kts | 195° |
| 2026-05-06 09:23 | 52.96867 | 10.14297 | 28994 ft | 437 kts | 195° |
| 2026-05-06 09:23 | 52.93943 | 10.12855 | 29504 ft | 440 kts | 195° |
| 2026-05-06 09:23 | 52.91037 | 10.11424 | 29981 ft | 443 kts | 195° |
| 2026-05-06 09:24 | 52.88076 | 10.09970 | 30434 ft | 445 kts | 195° |
| 2026-05-06 09:24 | 52.85098 | 10.08511 | 30916 ft | 446 kts | 195° |
| 2026-05-06 09:24 | 52.82139 | 10.07059 | 31625 ft | 442 kts | 195° |
| 2026-05-06 09:24 | 52.79198 | 10.05619 | 32242 ft | 440 kts | 195° |
| 2026-05-06 09:25 | 52.76268 | 10.04185 | 32904 ft | 438 kts | 195° |
| 2026-05-06 09:25 | 52.73353 | 10.02760 | 33599 ft | 435 kts | 195° |
| 2026-05-06 09:25 | 52.70462 | 10.01352 | 34191 ft | 432 kts | 195° |
| 2026-05-06 09:25 | 52.67574 | 9.99945 | 34658 ft | 433 kts | 195° |
| 2026-05-06 09:26 | 52.64686 | 9.98541 | 35127 ft | 433 kts | 195° |
| 2026-05-06 09:26 | 52.61795 | 9.97141 | 35590 ft | 434 kts | 196° |
| 2026-05-06 09:26 | 52.58897 | 9.95739 | 36073 ft | 434 kts | 196° |
| 2026-05-06 09:26 | 52.55997 | 9.94336 | 36536 ft | 435 kts | 197° |
| 2026-05-06 09:27 | 52.53082 | 9.92927 | 37056 ft | 436 kts | 197° |
| 2026-05-06 09:27 | 52.50176 | 9.91525 | 37586 ft | 436 kts | 197° |
| 2026-05-06 09:27 | 52.47259 | 9.90120 | 38099 ft | 437 kts | 197° |
| 2026-05-06 09:27 | 52.44345 | 9.88718 | 38577 ft | 437 kts | 198° |
| 2026-05-06 09:28 | 52.41427 | 9.87316 | 38969 ft | 437 kts | 197° |
| 2026-05-06 09:28 | 52.38507 | 9.85915 | 39403 ft | 438 kts | 198° |
| 2026-05-06 09:28 | 52.35578 | 9.84512 | 39839 ft | 438 kts | 198° |
| 2026-05-06 09:28 | 52.32646 | 9.83108 | 40267 ft | 439 kts | 198° |
| 2026-05-06 09:29 | 52.29711 | 9.81706 | 40669 ft | 440 kts | 198° |
| 2026-05-06 09:29 | 52.26775 | 9.80305 | 41077 ft | 440 kts | 198° |
| 2026-05-06 09:29 | 52.23833 | 9.78904 | 41469 ft | 440 kts | 198° |
| 2026-05-06 09:29 | 52.20891 | 9.77503 | 41856 ft | 441 kts | 198° |
| 2026-05-06 09:30 | 52.17944 | 9.76102 | 42242 ft | 441 kts | 198° |
| 2026-05-06 09:30 | 52.14996 | 9.74703 | 42620 ft | 442 kts | 198° |
| 2026-05-06 09:30 | 52.12035 | 9.73299 | 42774 ft | 447 kts | 198° |
| 2026-05-06 09:31 | 52.05978 | 9.70433 | 42786 ft | 464 kts | 198° |
| 2026-05-06 09:31 | 51.99662 | 9.67457 | 42770 ft | 479 kts | 197° |
| 2026-05-06 09:31 | 51.96491 | 9.65965 | 42781 ft | 461 kts | 198° |
| 2026-05-06 09:32 | 51.93465 | 9.64541 | 43082 ft | 454 kts | 198° |
| 2026-05-06 09:32 | 51.90484 | 9.63145 | 43931 ft | 442 kts | 198° |
| 2026-05-06 09:32 | 51.87521 | 9.61757 | 44217 ft | 443 kts | 198° |
| 2026-05-06 09:32 | 51.84555 | 9.60367 | 44520 ft | 445 kts | 198° |
| 2026-05-06 09:33 | 51.81578 | 9.58977 | 44786 ft | 447 kts | 198° |
| 2026-05-06 09:33 | 51.75496 | 9.56140 | 44760 ft | 462 kts | 197° |
| 2026-05-06 09:34 | 51.69229 | 9.53227 | 44767 ft | 476 kts | 197° |
| 2026-05-06 09:34 | 51.62788 | 9.50241 | 44758 ft | 485 kts | 197° |
| 2026-05-06 09:35 | 51.56289 | 9.47238 | 44753 ft | 485 kts | 197° |
| 2026-05-06 09:35 | 51.49794 | 9.44245 | 44743 ft | 486 kts | 197° |
| 2026-05-06 09:36 | 51.43340 | 9.41280 | 44736 ft | 486 kts | 197° |
| 2026-05-06 09:36 | 51.36843 | 9.38303 | 44737 ft | 486 kts | 197° |
| 2026-05-06 09:37 | 51.30340 | 9.35333 | 44748 ft | 486 kts | 197° |
| 2026-05-06 09:37 | 51.23833 | 9.32370 | 44748 ft | 486 kts | 197° |
| 2026-05-06 09:38 | 51.17318 | 9.29411 | 44743 ft | 488 kts | 197° |
| 2026-05-06 09:38 | 51.10791 | 9.26456 | 44742 ft | 488 kts | 197° |
| 2026-05-06 09:39 | 51.04261 | 9.23508 | 44744 ft | 488 kts | 197° |
| 2026-05-06 09:39 | 50.97726 | 9.20567 | 44744 ft | 488 kts | 197° |
| 2026-05-06 09:40 | 50.91192 | 9.17634 | 44742 ft | 488 kts | 197° |
| 2026-05-06 09:40 | 50.81395 | 9.13254 | 44740 ft | 488 kts | 197° |
| 2026-05-06 09:41 | 50.74888 | 9.10355 | 44742 ft | 490 kts | 197° |
| 2026-05-06 09:41 | 50.68291 | 9.07424 | 44750 ft | 489 kts | 197° |
| 2026-05-06 09:42 | 50.61769 | 9.04535 | 44756 ft | 489 kts | 197° |
| 2026-05-06 09:42 | 50.55207 | 9.01637 | 44761 ft | 489 kts | 197° |
| 2026-05-06 09:43 | 50.48659 | 8.98753 | 44751 ft | 488 kts | 197° |
| 2026-05-06 09:43 | 50.42116 | 8.95880 | 44752 ft | 488 kts | 197° |
| 2026-05-06 09:44 | 50.35578 | 8.93017 | 44752 ft | 488 kts | 197° |
| 2026-05-06 09:44 | 50.29035 | 8.90160 | 44757 ft | 487 kts | 197° |
| 2026-05-06 09:45 | 50.22501 | 8.87315 | 44760 ft | 487 kts | 197° |
| 2026-05-06 09:45 | 50.15975 | 8.84483 | 44760 ft | 487 kts | 197° |
| 2026-05-06 09:46 | 50.09442 | 8.81654 | 44762 ft | 487 kts | 197° |
| 2026-05-06 09:46 | 50.02909 | 8.79403 | 44774 ft | 485 kts | 189° |